sensor_id;sensor_type;location;lat;lon;timestamp;temperature;humidity
69324;DHT22;56470;47.350;8.718;2022-07-03T00:01:58;18.23;84.64
69324;DHT22;56470;47.350;8.718;2022-07-03T00:04:24;18.21;84.64
69324;DHT22;56470;47.350;8.718;2022-07-03T00:06:49;18.21;84.69
69324;DHT22;56470;47.350;8.718;2022-07-03T00:09:15;18.08;85.01
69324;DHT22;56470;47.350;8.718;2022-07-03T00:11:42;18.02;85.13
69324;DHT22;56470;47.350;8.718;2022-07-03T00:14:08;18.05;85.07
69324;DHT22;56470;47.350;8.718;2022-07-03T00:16:33;18.22;84.37
69324;DHT22;56470;47.350;8.718;2022-07-03T00:18:58;18.33;83.91
69324;DHT22;56470;47.350;8.718;2022-07-03T00:21:55;18.53;82.95
69324;DHT22;56470;47.350;8.718;2022-07-03T00:27:08;18.75;81.91
69324;DHT22;56470;47.350;8.718;2022-07-03T00:29:40;18.85;81.26
69324;DHT22;56470;47.350;8.718;2022-07-03T00:32:08;18.91;80.92
69324;DHT22;56470;47.350;8.718;2022-07-03T00:34:34;18.95;80.68
69324;DHT22;56470;47.350;8.718;2022-07-03T00:37:00;19.01;80.45
69324;DHT22;56470;47.350;8.718;2022-07-03T00:39:26;18.96;80.34
69324;DHT22;56470;47.350;8.718;2022-07-03T00:42:03;18.98;80.32
69324;DHT22;56470;47.350;8.718;2022-07-03T00:44:29;19.06;80.31
69324;DHT22;56470;47.350;8.718;2022-07-03T00:46:56;19.03;80.02
69324;DHT22;56470;47.350;8.718;2022-07-03T00:49:23;18.99;80.02
69324;DHT22;56470;47.350;8.718;2022-07-03T00:51:54;19.01;79.74
69324;DHT22;56470;47.350;8.718;2022-07-03T00:54:22;19.05;79.59
69324;DHT22;56470;47.350;8.718;2022-07-03T00:56:52;19.16;79.24
69324;DHT22;56470;47.350;8.718;2022-07-03T00:59:18;19.08;79.36
69324;DHT22;56470;47.350;8.718;2022-07-03T01:01:44;19.05;79.31
69324;DHT22;56470;47.350;8.718;2022-07-03T01:04:20;19.03;79.10
69324;DHT22;56470;47.350;8.718;2022-07-03T01:06:52;19.06;79.61
69324;DHT22;56470;47.350;8.718;2022-07-03T01:09:33;19.20;79.13
69324;DHT22;56470;47.350;8.718;2022-07-03T01:12:06;19.18;79.12
69324;DHT22;56470;47.350;8.718;2022-07-03T01:14:49;19.03;79.04
69324;DHT22;56470;47.350;8.718;2022-07-03T01:17:33;18.96;79.49
69324;DHT22;56470;47.350;8.718;2022-07-03T01:20:02;18.87;80.36
69324;DHT22;56470;47.350;8.718;2022-07-03T01:25:15;18.74;81.16
69324;DHT22;56470;47.350;8.718;2022-07-03T01:30:31;18.30;82.56
69324;DHT22;56470;47.350;8.718;2022-07-03T01:33:00;18.26;82.98
69324;DHT22;56470;47.350;8.718;2022-07-03T01:35:51;18.12;83.59
69324;DHT22;56470;47.350;8.718;2022-07-03T01:38:17;18.04;83.86
69324;DHT22;56470;47.350;8.718;2022-07-03T01:40:49;17.96;84.23
69324;DHT22;56470;47.350;8.718;2022-07-03T01:43:18;17.91;84.48
69324;DHT22;56470;47.350;8.718;2022-07-03T01:45:47;17.91;84.56
69324;DHT22;56470;47.350;8.718;2022-07-03T01:48:13;17.88;84.77
69324;DHT22;56470;47.350;8.718;2022-07-03T01:50:41;17.84;85.09
69324;DHT22;56470;47.350;8.718;2022-07-03T01:53:09;17.84;85.11
69324;DHT22;56470;47.350;8.718;2022-07-03T01:55:39;17.84;85.32
69324;DHT22;56470;47.350;8.718;2022-07-03T01:58:05;17.77;85.66
69324;DHT22;56470;47.350;8.718;2022-07-03T02:00:40;17.64;86.02
69324;DHT22;56470;47.350;8.718;2022-07-03T02:03:10;17.61;86.34
69324;DHT22;56470;47.350;8.718;2022-07-03T02:05:44;17.54;86.41
69324;DHT22;56470;47.350;8.718;2022-07-03T02:08:34;17.46;86.56
69324;DHT22;56470;47.350;8.718;2022-07-03T02:11:15;17.36;87.06
69324;DHT22;56470;47.350;8.718;2022-07-03T02:13:51;17.36;87.01
69324;DHT22;56470;47.350;8.718;2022-07-03T02:16:20;17.32;86.72
69324;DHT22;56470;47.350;8.718;2022-07-03T02:18:58;17.27;86.85
69324;DHT22;56470;47.350;8.718;2022-07-03T02:21:28;17.32;86.83
69324;DHT22;56470;47.350;8.718;2022-07-03T02:24:16;17.36;86.67
69324;DHT22;56470;47.350;8.718;2022-07-03T02:26:42;17.44;86.23
69324;DHT22;56470;47.350;8.718;2022-07-03T02:29:12;17.37;86.15
69324;DHT22;56470;47.350;8.718;2022-07-03T02:31:44;17.29;86.59
69324;DHT22;56470;47.350;8.718;2022-07-03T02:34:15;17.18;86.79
69324;DHT22;56470;47.350;8.718;2022-07-03T02:36:45;17.18;86.82
69324;DHT22;56470;47.350;8.718;2022-07-03T02:39:16;17.04;86.83
69324;DHT22;56470;47.350;8.718;2022-07-03T02:41:46;16.94;87.38
69324;DHT22;56470;47.350;8.718;2022-07-03T02:47:33;16.80;87.94
69324;DHT22;56470;47.350;8.718;2022-07-03T02:50:06;16.78;87.88
69324;DHT22;56470;47.350;8.718;2022-07-03T03:00:37;16.68;88.05
69324;DHT22;56470;47.350;8.718;2022-07-03T03:03:07;16.65;87.79
69324;DHT22;56470;47.350;8.718;2022-07-03T03:05:40;16.65;87.73
69324;DHT22;56470;47.350;8.718;2022-07-03T03:11:09;16.61;87.70
69324;DHT22;56470;47.350;8.718;2022-07-03T03:13:45;16.54;87.88
69324;DHT22;56470;47.350;8.718;2022-07-03T03:16:15;16.49;88.04
69324;DHT22;56470;47.350;8.718;2022-07-03T03:18:41;16.43;88.20
69324;DHT22;56470;47.350;8.718;2022-07-03T03:21:09;16.40;88.36
69324;DHT22;56470;47.350;8.718;2022-07-03T03:23:42;16.44;88.20
69324;DHT22;56470;47.350;8.718;2022-07-03T03:26:10;16.44;88.02
69324;DHT22;56470;47.350;8.718;2022-07-03T03:28:35;16.37;88.13
69324;DHT22;56470;47.350;8.718;2022-07-03T03:31:01;16.39;88.19
69324;DHT22;56470;47.350;8.718;2022-07-03T03:33:27;16.33;88.52
69324;DHT22;56470;47.350;8.718;2022-07-03T03:35:53;16.36;88.96
69324;DHT22;56470;47.350;8.718;2022-07-03T03:38:18;16.36;88.35
69324;DHT22;56470;47.350;8.718;2022-07-03T03:40:44;16.37;88.02
69324;DHT22;56470;47.350;8.718;2022-07-03T03:43:10;16.44;87.57
69324;DHT22;56470;47.350;8.718;2022-07-03T03:45:35;16.43;87.44
69324;DHT22;56470;47.350;8.718;2022-07-03T03:48:01;16.44;87.69
69324;DHT22;56470;47.350;8.718;2022-07-03T03:50:26;16.42;87.88
69324;DHT22;56470;47.350;8.718;2022-07-03T03:52:52;16.40;87.98
69324;DHT22;56470;47.350;8.718;2022-07-03T03:55:18;16.44;87.68
69324;DHT22;56470;47.350;8.718;2022-07-03T03:57:43;16.56;87.26
69324;DHT22;56470;47.350;8.718;2022-07-03T04:00:09;16.89;86.17
69324;DHT22;56470;47.350;8.718;2022-07-03T04:02:34;17.05;85.00
69324;DHT22;56470;47.350;8.718;2022-07-03T04:05:00;17.40;83.86
69324;DHT22;56470;47.350;8.718;2022-07-03T04:07:25;17.73;83.29
69324;DHT22;56470;47.350;8.718;2022-07-03T04:09:50;17.98;82.06
69324;DHT22;56470;47.350;8.718;2022-07-03T04:12:16;18.33;80.78
69324;DHT22;56470;47.350;8.718;2022-07-03T04:14:41;18.63;78.79
69324;DHT22;56470;47.350;8.718;2022-07-03T04:17:07;18.78;77.97
69324;DHT22;56470;47.350;8.718;2022-07-03T04:19:32;19.01;77.25
69324;DHT22;56470;47.350;8.718;2022-07-03T04:21:58;19.05;76.94
69324;DHT22;56470;47.350;8.718;2022-07-03T04:24:23;18.94;77.69
69324;DHT22;56470;47.350;8.718;2022-07-03T04:26:49;19.29;75.90
69324;DHT22;56470;47.350;8.718;2022-07-03T04:29:14;19.67;74.71
69324;DHT22;56470;47.350;8.718;2022-07-03T04:31:40;20.04;73.13
69324;DHT22;56470;47.350;8.718;2022-07-03T04:34:06;20.22;72.31
69324;DHT22;56470;47.350;8.718;2022-07-03T04:36:31;20.39;71.66
69324;DHT22;56470;47.350;8.718;2022-07-03T04:38:57;20.39;71.98
69324;DHT22;56470;47.350;8.718;2022-07-03T04:41:22;20.34;72.39
69324;DHT22;56470;47.350;8.718;2022-07-03T04:43:47;20.71;71.07
69324;DHT22;56470;47.350;8.718;2022-07-03T04:46:13;20.99;70.42
69324;DHT22;56470;47.350;8.718;2022-07-03T04:48:38;21.01;70.42
69324;DHT22;56470;47.350;8.718;2022-07-03T04:51:03;21.26;69.33
69324;DHT22;56470;47.350;8.718;2022-07-03T04:53:29;21.64;68.18
69324;DHT22;56470;47.350;8.718;2022-07-03T04:55:54;21.67;68.01
69324;DHT22;56470;47.350;8.718;2022-07-03T04:58:19;22.22;66.08
69324;DHT22;56470;47.350;8.718;2022-07-03T05:00:45;22.79;64.18
69324;DHT22;56470;47.350;8.718;2022-07-03T05:03:11;23.19;62.90
69324;DHT22;56470;47.350;8.718;2022-07-03T05:05:37;23.58;61.54
69324;DHT22;56470;47.350;8.718;2022-07-03T05:08:02;23.47;61.58
69324;DHT22;56470;47.350;8.718;2022-07-03T05:10:28;23.82;60.69
69324;DHT22;56470;47.350;8.718;2022-07-03T05:12:53;23.98;60.21
69324;DHT22;56470;47.350;8.718;2022-07-03T05:15:20;23.86;60.15
69324;DHT22;56470;47.350;8.718;2022-07-03T05:17:46;24.28;58.98
69324;DHT22;56470;47.350;8.718;2022-07-03T05:20:12;24.50;58.45
69324;DHT22;56470;47.350;8.718;2022-07-03T05:23:02;24.63;57.54
69324;DHT22;56470;47.350;8.718;2022-07-03T05:25:28;24.64;57.54
69324;DHT22;56470;47.350;8.718;2022-07-03T05:27:54;24.80;57.75
69324;DHT22;56470;47.350;8.718;2022-07-03T05:30:22;24.99;57.08
69324;DHT22;56470;47.350;8.718;2022-07-03T05:32:47;25.44;56.03
69324;DHT22;56470;47.350;8.718;2022-07-03T05:35:13;25.60;54.83
69324;DHT22;56470;47.350;8.718;2022-07-03T05:37:38;25.54;55.00
69324;DHT22;56470;47.350;8.718;2022-07-03T05:40:05;25.69;54.38
69324;DHT22;56470;47.350;8.718;2022-07-03T05:42:30;25.90;53.61
69324;DHT22;56470;47.350;8.718;2022-07-03T05:44:56;26.05;52.89
69324;DHT22;56470;47.350;8.718;2022-07-03T05:47:21;26.78;51.14
69324;DHT22;56470;47.350;8.718;2022-07-03T05:49:46;26.92;51.20
69324;DHT22;56470;47.350;8.718;2022-07-03T05:52:12;26.97;50.98
69324;DHT22;56470;47.350;8.718;2022-07-03T05:54:38;27.09;49.26
69324;DHT22;56470;47.350;8.718;2022-07-03T05:57:03;27.53;49.04
69324;DHT22;56470;47.350;8.718;2022-07-03T05:59:29;27.50;48.36
69324;DHT22;56470;47.350;8.718;2022-07-03T06:01:54;27.63;48.10
69324;DHT22;56470;47.350;8.718;2022-07-03T06:04:19;27.38;49.19
69324;DHT22;56470;47.350;8.718;2022-07-03T06:06:45;27.57;48.65
69324;DHT22;56470;47.350;8.718;2022-07-03T06:09:10;26.61;50.97
69324;DHT22;56470;47.350;8.718;2022-07-03T06:11:35;26.84;50.55
69324;DHT22;56470;47.350;8.718;2022-07-03T06:14:01;26.59;51.82
69324;DHT22;56470;47.350;8.718;2022-07-03T06:16:26;27.47;49.56
69324;DHT22;56470;47.350;8.718;2022-07-03T06:18:51;28.01;48.32
69324;DHT22;56470;47.350;8.718;2022-07-03T06:21:16;28.05;48.46
69324;DHT22;56470;47.350;8.718;2022-07-03T06:23:42;27.09;50.32
69324;DHT22;56470;47.350;8.718;2022-07-03T06:26:07;26.06;53.18
69324;DHT22;56470;47.350;8.718;2022-07-03T06:28:33;26.21;52.98
69324;DHT22;56470;47.350;8.718;2022-07-03T06:30:58;26.69;51.98
69324;DHT22;56470;47.350;8.718;2022-07-03T06:33:23;27.08;50.96
69324;DHT22;56470;47.350;8.718;2022-07-03T06:35:49;26.18;53.16
69324;DHT22;56470;47.350;8.718;2022-07-03T06:38:15;26.28;53.62
69324;DHT22;56470;47.350;8.718;2022-07-03T06:40:40;27.05;51.42
69324;DHT22;56470;47.350;8.718;2022-07-03T06:43:06;28.00;48.13
69324;DHT22;56470;47.350;8.718;2022-07-03T06:45:31;28.56;47.53
69324;DHT22;56470;47.350;8.718;2022-07-03T06:47:56;28.42;47.85
69324;DHT22;56470;47.350;8.718;2022-07-03T06:50:22;28.75;45.23
69324;DHT22;56470;47.350;8.718;2022-07-03T06:52:47;28.71;47.20
69324;DHT22;56470;47.350;8.718;2022-07-03T06:55:12;27.84;48.33
69324;DHT22;56470;47.350;8.718;2022-07-03T06:57:38;27.60;49.19
69324;DHT22;56470;47.350;8.718;2022-07-03T07:00:04;28.02;46.95
69324;DHT22;56470;47.350;8.718;2022-07-03T07:02:30;28.31;45.60
69324;DHT22;56470;47.350;8.718;2022-07-03T07:04:55;27.16;46.94
69324;DHT22;56470;47.350;8.718;2022-07-03T07:07:20;28.13;45.04
69324;DHT22;56470;47.350;8.718;2022-07-03T07:09:46;28.77;43.13
69324;DHT22;56470;47.350;8.718;2022-07-03T07:12:11;29.11;42.90
69324;DHT22;56470;47.350;8.718;2022-07-03T07:14:37;29.11;42.28
69324;DHT22;56470;47.350;8.718;2022-07-03T07:17:02;29.46;42.14
69324;DHT22;56470;47.350;8.718;2022-07-03T07:19:28;30.08;41.22
69324;DHT22;56470;47.350;8.718;2022-07-03T07:21:53;29.32;42.75
69324;DHT22;56470;47.350;8.718;2022-07-03T07:24:18;28.67;42.79
69324;DHT22;56470;47.350;8.718;2022-07-03T07:26:44;29.67;40.62
69324;DHT22;56470;47.350;8.718;2022-07-03T07:29:09;29.91;39.80
69324;DHT22;56470;47.350;8.718;2022-07-03T07:31:34;30.57;39.44
69324;DHT22;56470;47.350;8.718;2022-07-03T07:34:00;30.21;39.19
69324;DHT22;56470;47.350;8.718;2022-07-03T07:36:29;30.67;38.84
69324;DHT22;56470;47.350;8.718;2022-07-03T07:38:54;30.71;38.63
69324;DHT22;56470;47.350;8.718;2022-07-03T07:41:20;30.47;39.63
69324;DHT22;56470;47.350;8.718;2022-07-03T07:43:45;31.33;38.12
69324;DHT22;56470;47.350;8.718;2022-07-03T07:46:10;32.05;36.16
69324;DHT22;56470;47.350;8.718;2022-07-03T07:48:36;31.33;37.55
69324;DHT22;56470;47.350;8.718;2022-07-03T07:51:01;31.88;37.88
69324;DHT22;56470;47.350;8.718;2022-07-03T07:53:26;31.62;37.36
69324;DHT22;56470;47.350;8.718;2022-07-03T07:55:52;30.12;38.95
69324;DHT22;56470;47.350;8.718;2022-07-03T07:58:17;29.92;39.34
69324;DHT22;56470;47.350;8.718;2022-07-03T08:00:42;30.63;38.34
69324;DHT22;56470;47.350;8.718;2022-07-03T08:03:30;31.49;37.34
69324;DHT22;56470;47.350;8.718;2022-07-03T08:06:14;31.69;36.17
69324;DHT22;56470;47.350;8.718;2022-07-03T08:08:39;32.05;35.85
69324;DHT22;56470;47.350;8.718;2022-07-03T08:11:05;32.38;34.15
69324;DHT22;56470;47.350;8.718;2022-07-03T08:13:30;32.43;33.45
69324;DHT22;56470;47.350;8.718;2022-07-03T08:15:55;31.74;33.55
69324;DHT22;56470;47.350;8.718;2022-07-03T08:18:21;32.52;32.72
69324;DHT22;56470;47.350;8.718;2022-07-03T08:20:46;33.08;32.42
69324;DHT22;56470;47.350;8.718;2022-07-03T08:23:11;33.06;30.22
69324;DHT22;56470;47.350;8.718;2022-07-03T08:25:37;33.76;29.67
69324;DHT22;56470;47.350;8.718;2022-07-03T08:28:02;33.19;30.18
69324;DHT22;56470;47.350;8.718;2022-07-03T08:30:28;33.96;28.14
69324;DHT22;56470;47.350;8.718;2022-07-03T08:32:56;34.53;27.62
69324;DHT22;56470;47.350;8.718;2022-07-03T08:35:21;35.54;25.68
69324;DHT22;56470;47.350;8.718;2022-07-03T08:37:47;34.68;27.63
69324;DHT22;56470;47.350;8.718;2022-07-03T08:40:14;34.25;29.26
69324;DHT22;56470;47.350;8.718;2022-07-03T08:42:57;34.11;30.01
69324;DHT22;56470;47.350;8.718;2022-07-03T08:45:23;33.49;30.61
69324;DHT22;56470;47.350;8.718;2022-07-03T08:47:50;32.46;31.85
69324;DHT22;56470;47.350;8.718;2022-07-03T08:50:17;32.90;31.97
69324;DHT22;56470;47.350;8.718;2022-07-03T08:52:44;33.00;31.28
69324;DHT22;56470;47.350;8.718;2022-07-03T08:55:10;32.91;31.58
69324;DHT22;56470;47.350;8.718;2022-07-03T08:57:37;33.86;30.10
69324;DHT22;56470;47.350;8.718;2022-07-03T09:00:05;33.42;30.39
69324;DHT22;56470;47.350;8.718;2022-07-03T09:02:33;34.52;29.25
69324;DHT22;56470;47.350;8.718;2022-07-03T09:04:59;33.97;29.99
69324;DHT22;56470;47.350;8.718;2022-07-03T09:07:31;34.96;28.90
69324;DHT22;56470;47.350;8.718;2022-07-03T09:09:59;35.00;28.74
69324;DHT22;56470;47.350;8.718;2022-07-03T09:12:25;35.04;28.03
69324;DHT22;56470;47.350;8.718;2022-07-03T09:14:50;34.23;29.02
69324;DHT22;56470;47.350;8.718;2022-07-03T09:17:16;34.69;28.87
69324;DHT22;56470;47.350;8.718;2022-07-03T09:19:45;32.86;30.10
69324;DHT22;56470;47.350;8.718;2022-07-03T09:24:52;33.29;29.84
69324;DHT22;56470;47.350;8.718;2022-07-03T09:27:21;33.36;29.94
69324;DHT22;56470;47.350;8.718;2022-07-03T09:29:51;32.93;30.73
69324;DHT22;56470;47.350;8.718;2022-07-03T09:32:21;33.93;29.17
69324;DHT22;56470;47.350;8.718;2022-07-03T09:34:47;35.27;27.61
69324;DHT22;56470;47.350;8.718;2022-07-03T09:37:24;35.02;28.08
69324;DHT22;56470;47.350;8.718;2022-07-03T09:39:55;35.24;27.12
69324;DHT22;56470;47.350;8.718;2022-07-03T09:42:21;33.31;28.63
69324;DHT22;56470;47.350;8.718;2022-07-03T09:44:46;33.45;29.34
69324;DHT22;56470;47.350;8.718;2022-07-03T09:47:19;31.60;31.76
69324;DHT22;56470;47.350;8.718;2022-07-03T09:52:43;33.58;29.27
69324;DHT22;56470;47.350;8.718;2022-07-03T09:57:45;34.08;28.38
69324;DHT22;56470;47.350;8.718;2022-07-03T10:00:21;33.63;28.58
69324;DHT22;56470;47.350;8.718;2022-07-03T10:05:36;33.69;27.76
69324;DHT22;56470;47.350;8.718;2022-07-03T10:08:04;33.80;26.48
69324;DHT22;56470;47.350;8.718;2022-07-03T10:10:31;33.86;25.95
69324;DHT22;56470;47.350;8.718;2022-07-03T10:12:59;33.18;25.77
69324;DHT22;56470;47.350;8.718;2022-07-03T10:15:26;32.57;27.44
69324;DHT22;56470;47.350;8.718;2022-07-03T10:17:54;32.77;24.80
69324;DHT22;56470;47.350;8.718;2022-07-03T10:20:48;33.76;26.47
69324;DHT22;56470;47.350;8.718;2022-07-03T10:23:20;34.23;26.27
69324;DHT22;56470;47.350;8.718;2022-07-03T10:25:46;33.65;26.99
69324;DHT22;56470;47.350;8.718;2022-07-03T10:28:13;33.42;27.40
69324;DHT22;56470;47.350;8.718;2022-07-03T10:30:39;33.85;26.50
69324;DHT22;56470;47.350;8.718;2022-07-03T10:33:05;33.96;26.62
69324;DHT22;56470;47.350;8.718;2022-07-03T10:37:58;34.69;24.78
69324;DHT22;56470;47.350;8.718;2022-07-03T10:40:41;34.72;24.61
69324;DHT22;56470;47.350;8.718;2022-07-03T10:43:44;34.34;24.43
69324;DHT22;56470;47.350;8.718;2022-07-03T10:46:29;34.10;24.62
69324;DHT22;56470;47.350;8.718;2022-07-03T10:49:10;33.93;25.00
69324;DHT22;56470;47.350;8.718;2022-07-03T10:54:25;34.76;24.50
69324;DHT22;56470;47.350;8.718;2022-07-03T11:07:43;31.85;28.67
69324;DHT22;56470;47.350;8.718;2022-07-03T11:13:01;32.43;28.41
69324;DHT22;56470;47.350;8.718;2022-07-03T11:15:29;32.31;28.61
69324;DHT22;56470;47.350;8.718;2022-07-03T11:18:29;31.76;28.54
69324;DHT22;56470;47.350;8.718;2022-07-03T11:23:44;32.42;27.90
69324;DHT22;56470;47.350;8.718;2022-07-03T11:36:09;32.28;28.85
69324;DHT22;56470;47.350;8.718;2022-07-03T11:38:35;32.17;29.23
69324;DHT22;56470;47.350;8.718;2022-07-03T11:41:01;31.98;28.36
69324;DHT22;56470;47.350;8.718;2022-07-03T11:43:28;32.00;29.29
69324;DHT22;56470;47.350;8.718;2022-07-03T11:45:54;32.03;28.91
69324;DHT22;56470;47.350;8.718;2022-07-03T11:48:23;32.35;28.70
69324;DHT22;56470;47.350;8.718;2022-07-03T11:50:51;32.45;28.21
69324;DHT22;56470;47.350;8.718;2022-07-03T11:53:21;32.74;27.65
69324;DHT22;56470;47.350;8.718;2022-07-03T11:58:15;32.70;28.02
69324;DHT22;56470;47.350;8.718;2022-07-03T12:00:41;32.80;28.34
69324;DHT22;56470;47.350;8.718;2022-07-03T12:03:06;31.60;30.34
69324;DHT22;56470;47.350;8.718;2022-07-03T12:05:33;31.43;30.60
69324;DHT22;56470;47.350;8.718;2022-07-03T12:08:04;31.91;29.66
69324;DHT22;56470;47.350;8.718;2022-07-03T12:10:40;31.97;29.87
69324;DHT22;56470;47.350;8.718;2022-07-03T12:13:22;31.87;29.81
69324;DHT22;56470;47.350;8.718;2022-07-03T12:15:48;31.46;30.76
69324;DHT22;56470;47.350;8.718;2022-07-03T12:18:14;31.42;31.09
69324;DHT22;56470;47.350;8.718;2022-07-03T12:20:40;31.12;31.34
69324;DHT22;56470;47.350;8.718;2022-07-03T12:23:05;31.07;31.85
69324;DHT22;56470;47.350;8.718;2022-07-03T12:25:31;30.95;31.99
69324;DHT22;56470;47.350;8.718;2022-07-03T12:27:56;31.01;31.81
69324;DHT22;56470;47.350;8.718;2022-07-03T12:30:22;30.99;32.23
69324;DHT22;56470;47.350;8.718;2022-07-03T12:32:50;30.92;31.68
69324;DHT22;56470;47.350;8.718;2022-07-03T12:35:23;30.76;32.27
69324;DHT22;56470;47.350;8.718;2022-07-03T12:37:49;30.60;32.74
69324;DHT22;56470;47.350;8.718;2022-07-03T12:40:15;30.28;33.05
69324;DHT22;56470;47.350;8.718;2022-07-03T12:42:51;30.05;33.77
69324;DHT22;56470;47.350;8.718;2022-07-03T12:45:19;30.16;33.60
69324;DHT22;56470;47.350;8.718;2022-07-03T12:47:45;30.11;34.22
69324;DHT22;56470;47.350;8.718;2022-07-03T12:50:11;30.02;34.02
69324;DHT22;56470;47.350;8.718;2022-07-03T12:52:55;30.02;34.28
69324;DHT22;56470;47.350;8.718;2022-07-03T12:55:25;30.04;34.90
69324;DHT22;56470;47.350;8.718;2022-07-03T12:58:13;30.12;34.73
69324;DHT22;56470;47.350;8.718;2022-07-03T13:00:58;30.14;34.19
69324;DHT22;56470;47.350;8.718;2022-07-03T13:03:31;30.11;33.94
69324;DHT22;56470;47.350;8.718;2022-07-03T13:05:59;29.67;34.63
69324;DHT22;56470;47.350;8.718;2022-07-03T13:08:24;29.81;34.83
69324;DHT22;56470;47.350;8.718;2022-07-03T13:10:58;29.92;34.62
69324;DHT22;56470;47.350;8.718;2022-07-03T13:13:24;29.92;34.56
69324;DHT22;56470;47.350;8.718;2022-07-03T13:15:49;29.94;35.18
69324;DHT22;56470;47.350;8.718;2022-07-03T13:18:15;29.91;35.47
69324;DHT22;56470;47.350;8.718;2022-07-03T13:20:40;30.01;35.52
69324;DHT22;56470;47.350;8.718;2022-07-03T13:23:08;30.16;35.19
69324;DHT22;56470;47.350;8.718;2022-07-03T13:25:37;30.16;35.41
69324;DHT22;56470;47.350;8.718;2022-07-03T13:30:33;29.98;34.83
69324;DHT22;56470;47.350;8.718;2022-07-03T13:32:59;29.91;35.38
69324;DHT22;56470;47.350;8.718;2022-07-03T13:35:25;29.97;35.31
69324;DHT22;56470;47.350;8.718;2022-07-03T13:37:50;30.05;35.25
69324;DHT22;56470;47.350;8.718;2022-07-03T13:40:16;29.84;35.71
69324;DHT22;56470;47.350;8.718;2022-07-03T13:42:41;30.07;35.07
69324;DHT22;56470;47.350;8.718;2022-07-03T13:45:07;30.31;34.82
69324;DHT22;56470;47.350;8.718;2022-07-03T13:47:32;30.37;34.24
69324;DHT22;56470;47.350;8.718;2022-07-03T13:49:57;30.40;33.91
69324;DHT22;56470;47.350;8.718;2022-07-03T13:52:23;30.50;34.13
69324;DHT22;56470;47.350;8.718;2022-07-03T13:54:48;30.56;34.25
69324;DHT22;56470;47.350;8.718;2022-07-03T13:57:14;30.66;33.71
69324;DHT22;56470;47.350;8.718;2022-07-03T13:59:40;30.52;33.35
69324;DHT22;56470;47.350;8.718;2022-07-03T14:02:07;30.55;33.43
69324;DHT22;56470;47.350;8.718;2022-07-03T14:04:32;30.50;33.57
69324;DHT22;56470;47.350;8.718;2022-07-03T14:06:58;30.43;33.79
69324;DHT22;56470;47.350;8.718;2022-07-03T14:09:23;30.49;33.89
69324;DHT22;56470;47.350;8.718;2022-07-03T14:11:49;30.53;33.81
69324;DHT22;56470;47.350;8.718;2022-07-03T14:14:15;30.53;34.33
69324;DHT22;56470;47.350;8.718;2022-07-03T14:16:41;30.57;33.77
69324;DHT22;56470;47.350;8.718;2022-07-03T14:19:06;30.57;34.20
69324;DHT22;56470;47.350;8.718;2022-07-03T14:21:33;30.70;33.79
69324;DHT22;56470;47.350;8.718;2022-07-03T14:23:58;30.69;33.77
69324;DHT22;56470;47.350;8.718;2022-07-03T14:26:24;30.66;33.71
69324;DHT22;56470;47.350;8.718;2022-07-03T14:29:08;30.60;34.19
69324;DHT22;56470;47.350;8.718;2022-07-03T14:31:56;30.56;34.70
69324;DHT22;56470;47.350;8.718;2022-07-03T14:34:41;30.44;33.49
69324;DHT22;56470;47.350;8.718;2022-07-03T14:37:07;30.25;33.85
69324;DHT22;56470;47.350;8.718;2022-07-03T14:39:32;30.29;33.88
69324;DHT22;56470;47.350;8.718;2022-07-03T14:41:57;30.28;34.11
69324;DHT22;56470;47.350;8.718;2022-07-03T14:44:23;30.12;34.43
69324;DHT22;56470;47.350;8.718;2022-07-03T14:46:51;30.31;34.37
69324;DHT22;56470;47.350;8.718;2022-07-03T14:49:17;30.39;34.21
69324;DHT22;56470;47.350;8.718;2022-07-03T14:51:43;30.46;34.13
69324;DHT22;56470;47.350;8.718;2022-07-03T14:54:08;30.50;33.72
69324;DHT22;56470;47.350;8.718;2022-07-03T14:56:39;30.50;34.25
69324;DHT22;56470;47.350;8.718;2022-07-03T14:59:07;30.56;33.90
69324;DHT22;56470;47.350;8.718;2022-07-03T15:01:35;30.66;34.32
69324;DHT22;56470;47.350;8.718;2022-07-03T15:04:04;30.66;33.95
69324;DHT22;56470;47.350;8.718;2022-07-03T15:06:32;30.52;33.34
69324;DHT22;56470;47.350;8.718;2022-07-03T15:09:00;30.52;34.09
69324;DHT22;56470;47.350;8.718;2022-07-03T15:11:55;30.50;34.30
69324;DHT22;56470;47.350;8.718;2022-07-03T15:14:43;30.53;34.05
69324;DHT22;56470;47.350;8.718;2022-07-03T15:17:08;30.43;34.05
69324;DHT22;56470;47.350;8.718;2022-07-03T15:19:37;30.39;34.27
69324;DHT22;56470;47.350;8.718;2022-07-03T15:22:07;30.40;34.46
69324;DHT22;56470;47.350;8.718;2022-07-03T15:24:36;30.44;34.72
69324;DHT22;56470;47.350;8.718;2022-07-03T15:27:01;30.47;35.15
69324;DHT22;56470;47.350;8.718;2022-07-03T15:29:29;30.50;35.38
69324;DHT22;56470;47.350;8.718;2022-07-03T15:31:55;30.50;35.68
69324;DHT22;56470;47.350;8.718;2022-07-03T15:34:24;30.55;35.36
69324;DHT22;56470;47.350;8.718;2022-07-03T15:39:49;30.59;35.11
69324;DHT22;56470;47.350;8.718;2022-07-03T15:45:03;30.53;34.91
69324;DHT22;56470;47.350;8.718;2022-07-03T15:47:57;30.50;34.75
69324;DHT22;56470;47.350;8.718;2022-07-03T15:53:18;30.43;34.96
69324;DHT22;56470;47.350;8.718;2022-07-03T15:55:45;30.33;34.90
69324;DHT22;56470;47.350;8.718;2022-07-03T15:58:12;30.18;35.20
69324;DHT22;56470;47.350;8.718;2022-07-03T16:00:38;30.22;35.67
69324;DHT22;56470;47.350;8.718;2022-07-03T16:03:32;30.12;35.10
69324;DHT22;56470;47.350;8.718;2022-07-03T16:06:03;30.09;35.34
69324;DHT22;56470;47.350;8.718;2022-07-03T16:08:29;30.07;35.16
69324;DHT22;56470;47.350;8.718;2022-07-03T16:10:55;30.11;35.04
69324;DHT22;56470;47.350;8.718;2022-07-03T16:13:25;30.05;35.13
69324;DHT22;56470;47.350;8.718;2022-07-03T16:15:51;30.11;35.28
69324;DHT22;56470;47.350;8.718;2022-07-03T16:18:17;30.14;35.13
69324;DHT22;56470;47.350;8.718;2022-07-03T16:20:43;30.12;35.47
69324;DHT22;56470;47.350;8.718;2022-07-03T16:23:11;30.14;35.45
69324;DHT22;56470;47.350;8.718;2022-07-03T16:25:37;30.09;35.35
69324;DHT22;56470;47.350;8.718;2022-07-03T16:28:05;30.15;35.22
69324;DHT22;56470;47.350;8.718;2022-07-03T16:30:34;30.02;35.42
69324;DHT22;56470;47.350;8.718;2022-07-03T16:33:02;29.98;35.33
69324;DHT22;56470;47.350;8.718;2022-07-03T16:35:34;29.96;35.87
69324;DHT22;56470;47.350;8.718;2022-07-03T16:38:03;29.90;36.15
69324;DHT22;56470;47.350;8.718;2022-07-03T16:40:30;29.91;36.06
69324;DHT22;56470;47.350;8.718;2022-07-03T16:42:57;29.97;36.22
69324;DHT22;56470;47.350;8.718;2022-07-03T16:45:26;29.96;36.07
69324;DHT22;56470;47.350;8.718;2022-07-03T16:47:52;29.92;36.18
69324;DHT22;56470;47.350;8.718;2022-07-03T16:50:22;29.87;36.04
69324;DHT22;56470;47.350;8.718;2022-07-03T16:52:49;29.88;36.29
69324;DHT22;56470;47.350;8.718;2022-07-03T16:55:16;29.94;36.49
69324;DHT22;56470;47.350;8.718;2022-07-03T16:57:51;29.92;36.27